createdAt,value
2023-01-28T00:02:45.640Z,13.35
2023-01-28T00:07:51.374Z,13.38
2023-01-28T00:12:55.196Z,13.73
2023-01-28T00:17:58.939Z,14.00
2023-01-28T00:23:02.997Z,15.05
2023-01-28T00:28:06.715Z,15.50
2023-01-28T00:33:11.583Z,12.88
2023-01-28T00:38:18.693Z,13.38
2023-01-28T00:43:22.936Z,13.27
2023-01-28T00:48:26.629Z,15.18
2023-01-28T00:53:32.018Z,14.55
2023-01-28T00:58:36.023Z,13.27
2023-01-28T01:03:40.420Z,14.15
2023-01-28T01:08:50.948Z,15.25
2023-01-28T01:13:59.632Z,12.98
2023-01-28T01:19:03.796Z,14.38
2023-01-28T01:24:07.958Z,12.52
2023-01-28T01:29:11.945Z,14.50
2023-01-28T01:34:17.795Z,14.27
2023-01-28T01:39:21.514Z,13.48
2023-01-28T01:45:02.412Z,12.77
2023-01-28T01:50:41.050Z,13.15
2023-01-28T01:55:48.611Z,12.52
2023-01-28T02:05:56.895Z,15.20
2023-01-28T02:11:06.386Z,13.52
2023-01-28T02:16:11.387Z,11.82
2023-01-28T02:21:38.580Z,13.80
2023-01-28T02:27:01.293Z,14.43
2023-01-28T02:32:11.747Z,13.30
2023-01-28T02:37:23.077Z,13.20
2023-01-28T02:42:32.928Z,14.07
2023-01-28T02:47:55.309Z,14.75
2023-01-28T02:53:42.664Z,14.65
2023-01-28T02:58:59.478Z,14.30
2023-01-28T03:04:21.363Z,11.88
2023-01-28T03:09:28.731Z,15.23
2023-01-28T03:14:53.408Z,14.38
2023-01-28T03:20:16.251Z,13.40
2023-01-28T03:25:42.216Z,15.02
2023-01-28T03:31:16.739Z,14.55
2023-01-28T03:36:46.378Z,13.13
2023-01-28T03:42:09.721Z,14.02
2023-01-28T03:47:24.505Z,13.38
2023-01-28T03:52:33.968Z,16.92
2023-01-28T03:58:15.096Z,15.50
2023-01-28T04:03:21.807Z,12.77
2023-01-28T04:08:36.788Z,16.33
2023-01-28T04:14:03.474Z,15.13
2023-01-28T04:19:29.121Z,15.65
2023-01-28T04:24:34.831Z,15.50
2023-01-28T04:29:38.620Z,15.50
2023-01-28T04:35:10.062Z,16.23
2023-01-28T04:40:32.774Z,14.27
2023-01-28T04:45:50.805Z,15.57
2023-01-28T04:51:06.812Z,11.85
2023-01-28T04:56:25.878Z,14.25
2023-01-28T05:01:30.545Z,15.20
2023-01-28T05:06:35.166Z,14.93
2023-01-28T05:11:52.492Z,15.63
2023-01-28T05:16:56.504Z,44.47
2023-01-28T05:22:00.466Z,15.55
2023-01-28T05:27:09.270Z,15.35
2023-01-28T05:32:14.114Z,15.07
2023-01-28T05:37:18.553Z,17.08
2023-01-28T05:42:23.608Z,12.98
2023-01-28T05:47:34.915Z,16.52
2023-01-28T05:53:01.440Z,12.70
2023-01-28T05:58:09.778Z,13.98
2023-01-28T06:03:14.171Z,13.27
2023-01-28T06:08:19.477Z,12.02
2023-01-28T06:13:24.239Z,11.98
2023-01-28T06:18:49.392Z,13.40
2023-01-28T06:23:53.750Z,11.93
2023-01-28T06:28:57.707Z,11.95
2023-01-28T06:34:01.704Z,10.95
2023-01-28T06:39:05.896Z,11.60
2023-01-28T06:44:09.679Z,11.40
2023-01-28T06:49:13.564Z,11.32
2023-01-28T06:54:17.490Z,10.60
2023-01-28T06:59:22.196Z,11.27
2023-01-28T07:04:26.082Z,10.18
2023-01-28T07:09:29.843Z,10.52
2023-01-28T07:14:33.896Z,10.52
2023-01-28T07:19:37.918Z,10.30
2023-01-28T07:24:41.986Z,11.85
2023-01-28T07:29:45.933Z,10.27
2023-01-28T07:34:49.809Z,11.40
2023-01-28T07:39:54.048Z,10.70
2023-01-28T07:44:58.169Z,10.85
2023-01-28T07:50:02.017Z,12.35
2023-01-28T07:55:08.158Z,11.90
2023-01-28T08:00:12.998Z,9.32
2023-01-28T08:05:22.536Z,11.13
2023-01-28T08:10:27.116Z,9.23
2023-01-28T08:15:33.384Z,9.27
2023-01-28T08:20:38.951Z,9.67
2023-01-28T08:25:44.141Z,11.05
2023-01-28T08:30:48.408Z,9.93
2023-01-28T08:35:52.487Z,10.52
2023-01-28T08:40:58.992Z,8.25
2023-01-28T08:46:02.828Z,10.60
2023-01-28T08:51:07.033Z,11.48
2023-01-28T08:56:10.790Z,9.80
2023-01-28T09:01:14.792Z,9.98
2023-01-28T09:06:18.554Z,10.18
2023-01-28T09:11:22.617Z,10.00
2023-01-28T09:16:27.662Z,9.77
2023-01-28T09:21:31.429Z,10.18
2023-01-28T09:26:35.503Z,9.98
2023-01-28T09:31:39.274Z,10.50
2023-01-28T09:36:45.440Z,10.52
2023-01-28T09:42:24.043Z,10.23
2023-01-28T09:47:37.030Z,11.13
2023-01-28T09:52:42.634Z,11.68
2023-01-28T09:57:54.414Z,9.98
2023-01-28T10:03:25.155Z,10.73
2023-01-28T10:08:35.283Z,11.13
2023-01-28T10:14:13.479Z,10.00
2023-01-28T10:24:42.461Z,10.77
2023-01-28T10:29:50.862Z,11.75
2023-01-28T10:34:54.832Z,11.10
2023-01-28T10:40:00.832Z,11.18
2023-01-28T10:45:24.922Z,13.30
2023-01-28T10:50:31.381Z,11.43
2023-01-28T10:55:56.747Z,12.25
2023-01-28T11:01:03.039Z,11.35
2023-01-28T11:06:07.347Z,9.20
2023-01-28T11:11:16.698Z,11.10
2023-01-28T11:16:21.471Z,12.00
2023-01-28T11:21:32.570Z,11.00
2023-01-28T11:26:40.168Z,12.18
2023-01-28T11:31:45.758Z,11.48
2023-01-28T11:37:04.916Z,13.10
2023-01-28T11:42:23.203Z,11.45
2023-01-28T11:53:07.923Z,12.00
2023-01-28T11:58:27.128Z,11.52
2023-01-28T12:04:06.003Z,10.20
2023-01-28T12:09:27.912Z,10.95
2023-01-28T12:20:33.158Z,12.30
2023-01-28T12:26:04.986Z,11.52
2023-01-28T12:31:28.760Z,11.68
2023-01-28T12:37:05.257Z,11.27
2023-01-28T12:42:16.097Z,10.65
2023-01-28T12:47:42.447Z,10.55
2023-01-28T12:52:54.260Z,10.25
2023-01-28T12:58:01.519Z,11.63
2023-01-28T13:03:24.089Z,12.20
2023-01-28T13:08:30.124Z,11.30
2023-01-28T13:13:39.256Z,11.30
2023-01-28T13:18:46.138Z,12.73
2023-01-28T13:23:52.277Z,11.52
2023-01-28T13:29:26.393Z,11.40
2023-01-28T13:34:37.992Z,10.73
2023-01-28T13:39:54.369Z,11.57
2023-01-28T13:45:20.860Z,11.07
2023-01-28T13:50:34.293Z,12.07
2023-01-28T13:55:45.128Z,10.95
2023-01-28T14:01:08.268Z,11.55
2023-01-28T14:06:36.388Z,10.65
2023-01-28T14:12:04.861Z,12.07
2023-01-28T14:17:17.721Z,11.13
2023-01-28T14:22:22.209Z,12.07
2023-01-28T14:27:45.721Z,11.27
2023-01-28T14:32:53.054Z,12.75
2023-01-28T14:37:58.494Z,10.23
2023-01-28T14:43:10.090Z,11.27
2023-01-28T14:48:16.455Z,11.85
2023-01-28T14:53:20.908Z,10.85
2023-01-28T14:58:33.704Z,11.32
2023-01-28T15:03:46.941Z,11.65
2023-01-28T15:08:52.817Z,11.73
2023-01-28T15:14:00.514Z,10.63
2023-01-28T15:19:08.570Z,10.48
2023-01-28T15:24:17.170Z,9.35
2023-01-28T15:29:41.495Z,11.85
2023-01-28T15:34:48.687Z,9.82
2023-01-28T15:40:07.236Z,10.82
2023-01-28T15:45:19.653Z,10.60
2023-01-28T15:50:26.829Z,11.07
2023-01-28T15:55:41.209Z,11.23
2023-01-28T16:00:45.686Z,9.32
2023-01-28T16:06:09.531Z,9.40
2023-01-28T16:11:14.957Z,10.55
2023-01-28T16:16:35.163Z,10.13
2023-01-28T16:21:46.743Z,9.98
2023-01-28T16:27:02.163Z,10.90
2023-01-28T16:32:31.066Z,9.98
2023-01-28T16:37:35.038Z,9.50
2023-01-28T16:42:38.930Z,11.10
2023-01-28T16:47:42.667Z,10.02
2023-01-28T16:52:49.825Z,9.23
2023-01-28T16:57:58.634Z,9.85
2023-01-28T17:03:02.327Z,9.73
2023-01-28T17:08:06.445Z,8.30
2023-01-28T17:13:10.329Z,9.60
2023-01-28T17:18:14.384Z,9.40
2023-01-28T17:23:23.709Z,8.25
2023-01-28T17:28:27.448Z,9.57
2023-01-28T17:33:31.337Z,8.15
2023-01-28T17:38:35.439Z,9.10
2023-01-28T17:43:39.395Z,8.43
2023-01-28T17:48:46.316Z,8.65
2023-01-28T17:53:55.262Z,7.68
2023-01-28T17:59:04.380Z,8.00
2023-01-28T18:04:08.121Z,9.02
2023-01-28T18:09:13.152Z,8.20
2023-01-28T18:14:16.933Z,8.25
2023-01-28T18:19:21.009Z,7.43
2023-01-28T18:24:27.750Z,8.18
2023-01-28T18:29:32.653Z,8.57
2023-01-28T18:34:36.719Z,7.35
2023-01-28T18:39:42.313Z,7.75
2023-01-28T18:44:48.976Z,7.85
2023-01-28T18:49:52.729Z,8.95
2023-01-28T18:54:57.673Z,8.23
2023-01-28T19:00:01.611Z,7.85
2023-01-28T19:05:07.154Z,7.05
2023-01-28T19:10:13.275Z,8.55
2023-01-28T19:15:17.385Z,7.95
2023-01-28T19:20:21.700Z,6.35
2023-01-28T19:25:25.483Z,7.22
2023-01-28T19:30:29.392Z,7.40
2023-01-28T19:35:36.542Z,6.85
2023-01-28T19:40:42.039Z,7.83
2023-01-28T19:45:45.771Z,7.45
2023-01-28T19:50:49.656Z,6.57
2023-01-28T19:55:53.433Z,6.68
2023-01-28T20:01:08.698Z,8.52
2023-01-28T20:06:15.823Z,7.50
2023-01-28T20:11:20.037Z,7.10
2023-01-28T20:16:26.800Z,8.65
2023-01-28T20:21:33.384Z,7.97
2023-01-28T20:26:39.145Z,8.25
2023-01-28T20:31:43.945Z,7.05
2023-01-28T20:36:48.072Z,7.07
2023-01-28T20:41:52.222Z,7.05
2023-01-28T20:46:55.962Z,7.55
2023-01-28T20:51:59.866Z,7.93
2023-01-28T20:57:03.648Z,6.65
2023-01-28T21:02:07.778Z,8.63
2023-01-28T21:07:13.641Z,7.68
2023-01-28T21:12:17.359Z,6.75
2023-01-28T21:17:21.358Z,7.22
2023-01-28T21:22:25.266Z,6.60
2023-01-28T21:27:29.083Z,6.97
2023-01-28T21:32:32.912Z,7.80
2023-01-28T21:37:39.529Z,6.50
2023-01-28T21:42:44.140Z,7.93
2023-01-28T21:47:48.074Z,5.28
2023-01-28T21:52:52.701Z,7.60
2023-01-28T21:58:17.225Z,7.45
2023-01-28T22:03:21.113Z,6.97
2023-01-28T22:08:24.867Z,7.22
2023-01-28T22:13:28.928Z,6.50
2023-01-28T22:18:33.187Z,6.30
2023-01-28T22:23:37.316Z,7.20
2023-01-28T22:28:41.135Z,7.53
2023-01-28T22:33:45.036Z,8.23
2023-01-28T22:38:49.051Z,7.45
2023-01-28T22:43:53.608Z,7.38
2023-01-28T22:48:59.921Z,7.57
2023-01-28T22:54:04.182Z,8.13
2023-01-28T22:59:08.095Z,7.25
2023-01-28T23:04:12.323Z,6.85
2023-01-28T23:09:16.030Z,7.70
2023-01-28T23:14:39.085Z,6.85
2023-01-28T23:20:01.055Z,7.05
2023-01-28T23:25:06.332Z,6.88
2023-01-28T23:30:12.780Z,7.00
2023-01-28T23:35:17.356Z,6.18
2023-01-28T23:40:24.927Z,7.78
2023-01-28T23:45:29.137Z,7.10
2023-01-28T23:50:32.881Z,7.88
2023-01-28T23:55:39.439Z,8.48
